Sunday, January 4, 2015

C vs F

What a difference in perception the temp measurements can make! I think in Fahrenheit so even knowing something is shown in Celsius the minuses can give me the shivers.

Broken CloudsBroken Clouds 
-18°C
Feels Like: -29°
Wind Chill:-29° Ceiling:2743m
Heat Index:-18° Visibility:16km
Dew Point:-23° Wind Speed:26km/h
Humidity:66% Direction:310° (NW)
Pressure:1033mb Wind Gusts:
Report Text: KFSD 041856Z 31014KT 10SM BKN090 BKN250 M18/M23 A3049 RMK AO2 SLP364 T11781228
2 PM
Partly Cloudy
Partly Cloudy-17°
3 PM
Partly Cloudy
Partly Cloudy-17°
4 PM
Partly Cloudy
Partly Cloudy-17°
7 Day Forecast - °F | °C
sunmontuewedthufrisat
jan
04
P Cloudy
P Cloudy
-19°
-23°
jan
05
Light Snow
Light Snow
-13°
-24°
jan
06
M Cloudy
M Cloudy
-16°
-22°
jan
07
P Cloudy
P Cloudy
-19°
-25°
jan
08
P Cloudy
P Cloudy
-9°
-26°
jan
09
Cloudy
Cloudy
-10°
-21°
jan
10
M Cloudy
M Cloudy
-9°
-17°
Details for Sunday, January 04
Broken CloudsBroken Clouds 
0°F
Feels Like: -20°
Wind Chill:-20° Ceiling:9000
Heat Index: Visibility:10.00mi
Dew Point:-9° Wind Speed:16mph
Humidity:66% Direction:310° (NW)
Pressure:30.49" Wind Gusts:NA
Report Text: KFSD 041856Z 31014KT 10SM BKN090 BKN250 M18/M23 A3049 RMK AO2 SLP364 T11781228
2 PM
Partly Cloudy
Partly Cloudy
3 PM
Partly Cloudy
Partly Cloudy
4 PM
Partly Cloudy
Partly Cloudy
7 Day Forecast - °F | °C
sunmontuewedthufrisat
jan
04
P Cloudy
P Cloudy
-1°
-9°
jan
05
Light Snow
Light Snow
-10°
jan
06
M Cloudy
M Cloudy
-6°
jan
07
P Cloudy
P Cloudy
-2°
-12°
jan
08
P Cloudy
P Cloudy
17°
-14°
jan
09
Cloudy
Cloudy
14°
-5°
jan
10
M Cloudy
M Cloudy
16°
Details for Sunday, January 04

No comments: